Time;durP1;ratioP1;P1;durP2;ratioP2;P2;SDS_P1;SDS_P2;PMS_P1;PMS_P2;Temp;Humidity;BMP_temperature;BMP_pressure;BME280_temperature;BME280_humidity;BME280_pressure;Samples;Min_cycle;Max_cycle;Signal;HPM_P1;HPM_P2
2022/12/03 00:02:00;;;;;;;;;;;1.90;99.90;;;;;;5073801;28;19954;-66
2022/12/03 00:04:26;;;;;;;;;;;1.90;99.90;;;;;;5073846;28;19908;-66
2022/12/03 00:06:51;;;;;;;;;;;1.90;99.90;;;;;;5074094;28;19908;-66
2022/12/03 00:09:17;;;;;;;;;;;1.90;99.90;;;;;;5074002;28;19916;-64
2022/12/03 00:11:42;;;;;;;;;;;1.90;99.90;;;;;;5074041;28;19908;-64
2022/12/03 00:14:08;;;;;;;;;;;1.90;99.90;;;;;;5073995;28;19913;-64
2022/12/03 00:16:33;;;;;;;;;;;1.90;99.90;;;;;;5073957;28;20409;-64
2022/12/03 00:18:59;;;;;;;;;;;1.90;99.90;;;;;;5073959;28;19909;-64
2022/12/03 00:21:24;;;;;;;;;;;1.90;99.90;;;;;;5073908;28;19908;-64
2022/12/03 00:23:49;;;;;;;;;;;1.80;99.90;;;;;;5073705;28;19908;-64
2022/12/03 00:26:15;;;;;;;;;;;1.90;99.90;;;;;;5073888;28;19916;-64
2022/12/03 00:28:40;;;;;;;;;;;1.90;99.90;;;;;;5073413;28;19927;-64
2022/12/03 00:31:06;;;;;;;;;;;1.90;99.90;;;;;;5073630;28;20362;-64
2022/12/03 00:33:31;;;;;;;;;;;1.90;99.90;;;;;;5073791;28;19908;-64
2022/12/03 00:35:57;;;;;;;;;;;1.80;99.90;;;;;;5073784;28;19912;-64
2022/12/03 00:38:22;;;;;;;;;;;1.80;99.90;;;;;;5073762;28;20350;-66
2022/12/03 00:40:48;;;;;;;;;;;1.90;99.90;;;;;;5073702;28;19961;-66
2022/12/03 00:43:13;;;;;;;;;;;1.90;99.90;;;;;;5055811;28;19908;-66
2022/12/03 00:45:38;;;;;;;;;;;1.90;99.90;;;;;;5073397;28;19909;-65
2022/12/03 00:48:04;;;;;;;;;;;1.90;99.90;;;;;;5055694;28;19912;-66
2022/12/03 00:50:29;;;;;;;;;;;1.80;99.90;;;;;;5073420;28;19916;-66
2022/12/03 00:52:55;;;;;;;;;;;1.80;99.90;;;;;;5073342;28;19908;-66
2022/12/03 00:55:20;;;;;;;;;;;1.80;99.90;;;;;;5073565;28;19920;-66
2022/12/03 00:57:46;;;;;;;;;;;1.80;99.90;;;;;;5073288;28;20392;-66
2022/12/03 01:00:12;;;;;;;;;;;1.80;99.90;;;;;;5073351;28;19909;-66
2022/12/03 01:02:37;;;;;;;;;;;1.80;99.90;;;;;;5073460;28;19913;-65
2022/12/03 01:05:03;;;;;;;;;;;1.80;99.90;;;;;;5073235;28;19915;-66
2022/12/03 01:07:28;;;;;;;;;;;1.80;99.90;;;;;;5073445;28;19983;-64
2022/12/03 01:09:54;;;;;;;;;;;1.80;99.90;;;;;;5073386;28;19958;-64
2022/12/03 01:12:19;;;;;;;;;;;1.80;99.90;;;;;;5073410;28;19908;-63
2022/12/03 01:14:45;;;;;;;;;;;1.80;99.90;;;;;;5073108;28;19908;-63
2022/12/03 01:17:11;;;;;;;;;;;1.80;99.90;;;;;;5073348;28;19908;-66
2022/12/03 01:19:37;;;;;;;;;;;1.80;99.90;;;;;;5073332;28;19909;-65
2022/12/03 01:22:02;;;;;;;;;;;1.80;99.90;;;;;;5055457;28;19916;-66
2022/12/03 01:24:28;;;;;;;;;;;1.80;99.90;;;;;;5073266;28;19908;-66
2022/12/03 01:26:55;;;;;;;;;;;1.80;99.90;;;;;;5073012;28;19916;-65
2022/12/03 01:29:20;;;;;;;;;;;1.80;99.90;;;;;;5072756;28;19920;-66
2022/12/03 01:32:18;;;;;;;;;;;1.80;99.90;;;;;;5072947;28;20000;-66
2022/12/03 01:34:31;;;;;;;;;;;1.80;99.90;;;;;;5072777;28;19908;-66
2022/12/03 01:36:56;;;;;;;;;;;1.80;99.90;;;;;;5075871;28;20505;-66
2022/12/03 01:39:22;;;;;;;;;;;1.80;99.90;;;;;;5076494;28;20356;-66
2022/12/03 01:41:48;;;;;;;;;;;1.80;99.90;;;;;;5076433;28;19912;-66
2022/12/03 01:44:19;;;;;;;;;;;1.80;99.90;;;;;;5076673;28;20382;-66
2022/12/03 01:46:45;;;;;;;;;;;1.80;99.90;;;;;;5076634;28;20362;-66
2022/12/03 01:49:13;;;;;;;;;;;1.80;99.90;;;;;;5076287;28;19913;-66
2022/12/03 01:51:39;;;;;;;;;;;1.80;99.90;;;;;;5076515;28;19916;-64
2022/12/03 01:54:04;;;;;;;;;;;1.80;99.90;;;;;;5076525;28;19964;-66
2022/12/03 01:56:30;;;;;;;;;;;1.80;99.90;;;;;;5076182;28;19909;-65
2022/12/03 01:58:55;;;;;;;;;;;1.70;99.90;;;;;;5076449;28;19908;-66
2022/12/03 02:01:21;;;;;;;;;;;1.80;99.90;;;;;;5076406;28;19908;-66
2022/12/03 02:03:46;;;;;;;;;;;1.70;99.90;;;;;;5076113;28;20003;-66
2022/12/03 02:06:14;;;;;;;;;;;1.70;99.90;;;;;;5076038;28;20396;-66
2022/12/03 02:08:40;;;;;;;;;;;1.70;99.90;;;;;;5076151;28;19917;-66
2022/12/03 02:11:24;;;;;;;;;;;1.70;99.90;;;;;;5076016;28;19962;-67
2022/12/03 02:13:51;;;;;;;;;;;1.70;99.90;;;;;;5076157;28;20366;-65
2022/12/03 02:16:17;;;;;;;;;;;1.70;99.90;;;;;;5076157;28;19912;-66
2022/12/03 02:18:42;;;;;;;;;;;1.70;99.90;;;;;;5075837;28;19909;-64
2022/12/03 02:21:14;;;;;;;;;;;1.70;99.90;;;;;;5076014;28;19932;-66
2022/12/03 02:23:46;;;;;;;;;;;1.60;99.90;;;;;;5075987;28;19908;-66
2022/12/03 02:26:11;;;;;;;;;;;1.60;99.90;;;;;;5075943;28;20282;-66
2022/12/03 02:28:37;;;;;;;;;;;1.70;99.90;;;;;;5075399;28;19925;-66
2022/12/03 02:31:04;;;;;;;;;;;1.60;99.90;;;;;;5075832;28;19913;-66
2022/12/03 02:33:30;;;;;;;;;;;1.60;99.90;;;;;;5075785;28;19908;-66
2022/12/03 02:35:55;;;;;;;;;;;1.60;99.90;;;;;;5075468;28;19908;-66
2022/12/03 02:38:22;;;;;;;;;;;1.60;99.90;;;;;;5075683;28;19915;-65
2022/12/03 02:40:50;;;;;;;;;;;1.60;99.90;;;;;;5075387;28;19956;-66
2022/12/03 02:43:16;;;;;;;;;;;1.60;99.90;;;;;;5057741;28;20255;-66
2022/12/03 02:45:43;;;;;;;;;;;1.60;99.90;;;;;;5075217;28;19909;-65
2022/12/03 02:48:10;;;;;;;;;;;1.60;99.90;;;;;;5075392;28;19919;-65
2022/12/03 02:50:38;;;;;;;;;;;1.50;99.90;;;;;;5075147;28;19908;-66
2022/12/03 02:53:05;;;;;;;;;;;1.60;99.90;;;;;;5075196;28;20003;-66
2022/12/03 02:55:32;;;;;;;;;;;1.60;99.90;;;;;;5075077;28;19996;-66
2022/12/03 02:57:58;;;;;;;;;;;1.60;99.90;;;;;;5075255;28;20326;-65
2022/12/03 03:00:24;;;;;;;;;;;1.60;99.90;;;;;;5075239;28;19916;-66
2022/12/03 03:02:50;;;;;;;;;;;1.60;99.90;;;;;;5075164;28;19948;-65
2022/12/03 03:05:17;;;;;;;;;;;1.60;99.90;;;;;;5075137;28;19916;-65
2022/12/03 03:07:43;;;;;;;;;;;1.60;99.90;;;;;;5074796;28;19909;-66
2022/12/03 03:10:11;;;;;;;;;;;1.60;99.90;;;;;;5075018;28;20243;-65
2022/12/03 03:12:37;;;;;;;;;;;1.50;99.90;;;;;;5074979;28;19909;-66
2022/12/03 03:15:03;;;;;;;;;;;1.50;99.90;;;;;;5074961;28;20362;-66
2022/12/03 03:17:28;;;;;;;;;;;1.50;99.90;;;;;;5074671;28;19915;-66
2022/12/03 03:19:54;;;;;;;;;;;1.50;99.90;;;;;;5074852;28;19931;-66
2022/12/03 03:22:19;;;;;;;;;;;1.50;99.90;;;;;;5074487;28;19955;-65
2022/12/03 03:24:44;;;;;;;;;;;1.50;99.90;;;;;;5074422;28;19909;-65
2022/12/03 03:27:10;;;;;;;;;;;1.50;99.90;;;;;;5074525;28;19909;-65
2022/12/03 03:29:35;;;;;;;;;;;1.50;99.90;;;;;;5074263;28;20007;-66
2022/12/03 03:32:01;;;;;;;;;;;1.50;99.90;;;;;;5074630;28;20274;-66
2022/12/03 03:34:27;;;;;;;;;;;1.50;99.90;;;;;;5074289;28;19916;-65
2022/12/03 03:36:53;;;;;;;;;;;1.50;99.90;;;;;;5074265;28;19908;-66
2022/12/03 03:39:18;;;;;;;;;;;1.50;99.90;;;;;;5074472;28;19908;-66
2022/12/03 03:41:45;;;;;;;;;;;1.50;99.90;;;;;;5074229;28;19916;-66
2022/12/03 03:44:10;;;;;;;;;;;1.50;99.90;;;;;;5074405;28;19909;-66
2022/12/03 03:46:36;;;;;;;;;;;1.50;99.90;;;;;;5074361;28;19909;-66
2022/12/03 03:49:03;;;;;;;;;;;1.50;99.90;;;;;;5074236;28;20376;-66
2022/12/03 03:51:29;;;;;;;;;;;1.50;99.90;;;;;;5074296;28;19917;-66
2022/12/03 03:53:54;;;;;;;;;;;1.50;99.90;;;;;;5074031;28;20350;-66
2022/12/03 03:56:20;;;;;;;;;;;1.50;99.90;;;;;;5074019;28;20290;-66
2022/12/03 03:58:45;;;;;;;;;;;1.50;99.90;;;;;;5073843;28;19912;-66
2022/12/03 04:01:12;;;;;;;;;;;1.50;99.90;;;;;;5073906;28;19915;-66
2022/12/03 04:03:37;;;;;;;;;;;1.50;99.90;;;;;;5074141;28;19974;-66
2022/12/03 04:06:03;;;;;;;;;;;1.50;99.90;;;;;;5074133;28;20358;-66
2022/12/03 04:08:28;;;;;;;;;;;1.40;99.90;;;;;;5073995;28;19912;-66
2022/12/03 04:13:39;;;;;;;;;;;1.40;99.90;;;;;;5073554;28;19908;-66
2022/12/03 04:16:05;;;;;;;;;;;1.50;99.90;;;;;;5074002;28;19915;-66
2022/12/03 04:18:45;;;;;;;;;;;1.50;99.90;;;;;;5073695;28;19908;-66
2022/12/03 04:23:58;;;;;;;;;;;1.40;99.90;;;;;;5073457;28;19912;-64
2022/12/03 04:29:09;;;;;;;;;;;1.40;99.90;;;;;;5073180;28;19963;-66
2022/12/03 04:37:05;;;;;;;;;;;1.30;99.90;;;;;;5073288;28;19908;-66
2022/12/03 04:39:31;;;;;;;;;;;1.30;99.90;;;;;;5073591;28;20259;-65
2022/12/03 04:41:56;;;;;;;;;;;1.30;99.90;;;;;;5073448;28;19977;-66
2022/12/03 04:44:37;;;;;;;;;;;1.30;99.90;;;;;;5073431;28;19909;-66
2022/12/03 04:47:04;;;;;;;;;;;1.30;99.90;;;;;;5073430;28;20379;-66
2022/12/03 04:49:29;;;;;;;;;;;1.30;99.90;;;;;;5073535;28;20007;-66
2022/12/03 04:51:55;;;;;;;;;;;1.20;99.90;;;;;;5073632;28;20311;-66
2022/12/03 04:54:20;;;;;;;;;;;1.20;99.90;;;;;;5073575;28;19908;-66
2022/12/03 04:56:46;;;;;;;;;;;1.20;99.90;;;;;;5073570;28;19908;-66
2022/12/03 04:59:11;;;;;;;;;;;1.20;99.90;;;;;;5073264;28;19909;-65
2022/12/03 05:01:37;;;;;;;;;;;1.20;99.90;;;;;;5073266;28;19909;-66
2022/12/03 05:04:02;;;;;;;;;;;1.20;99.90;;;;;;5073522;28;19908;-65
2022/12/03 05:06:28;;;;;;;;;;;1.20;99.90;;;;;;5073211;28;20294;-66
2022/12/03 05:08:53;;;;;;;;;;;1.20;99.90;;;;;;5073118;28;19912;-66
2022/12/03 05:11:18;;;;;;;;;;;1.20;99.90;;;;;;5075203;28;19913;-66
2022/12/03 05:13:44;;;;;;;;;;;1.10;99.90;;;;;;5077007;28;20282;-66
2022/12/03 05:16:09;;;;;;;;;;;1.20;99.90;;;;;;5076951;28;19915;-66
2022/12/03 05:18:35;;;;;;;;;;;1.10;99.90;;;;;;5077176;28;20003;-66
2022/12/03 05:21:00;;;;;;;;;;;1.10;99.90;;;;;;5076879;28;19908;-65
2022/12/03 05:23:26;;;;;;;;;;;1.10;99.90;;;;;;5076824;28;19909;-66
2022/12/03 05:25:51;;;;;;;;;;;1.10;99.90;;;;;;5077032;28;19961;-66
2022/12/03 05:28:17;;;;;;;;;;;1.10;99.90;;;;;;5076618;28;19920;-65
2022/12/03 05:30:42;;;;;;;;;;;1.10;99.90;;;;;;5076929;28;20001;-65
2022/12/03 05:33:08;;;;;;;;;;;1.10;99.90;;;;;;5076632;28;19913;-65
2022/12/03 05:35:33;;;;;;;;;;;1.10;99.90;;;;;;5076881;28;19909;-65
2022/12/03 05:37:59;;;;;;;;;;;1.10;99.90;;;;;;5076581;28;20305;-66
2022/12/03 05:40:24;;;;;;;;;;;1.00;99.90;;;;;;5076528;28;19908;-66
2022/12/03 05:42:53;;;;;;;;;;;1.00;99.90;;;;;;5076474;28;19952;-66
2022/12/03 05:45:20;;;;;;;;;;;1.00;99.90;;;;;;5076701;28;19967;-66
2022/12/03 05:47:45;;;;;;;;;;;1.00;99.90;;;;;;5076334;28;19909;-66
2022/12/03 05:50:11;;;;;;;;;;;1.00;99.90;;;;;;5058517;28;19909;-67
2022/12/03 05:52:36;;;;;;;;;;;1.00;99.90;;;;;;5076552;28;19947;-66
2022/12/03 05:55:02;;;;;;;;;;;1.00;99.90;;;;;;5076521;28;20282;-66
2022/12/03 05:57:27;;;;;;;;;;;1.00;99.90;;;;;;5076510;28;20297;-66
2022/12/03 05:59:52;;;;;;;;;;;1.00;99.90;;;;;;5076170;28;19908;-66
2022/12/03 06:02:18;;;;;;;;;;;1.00;99.90;;;;;;5076331;28;19915;-66
2022/12/03 06:04:43;;;;;;;;;;;1.00;99.90;;;;;;5076110;28;19908;-66
2022/12/03 06:07:09;;;;;;;;;;;1.00;99.90;;;;;;5076313;28;20378;-65
2022/12/03 06:09:34;;;;;;;;;;;1.00;99.90;;;;;;5075953;28;19919;-66
2022/12/03 06:12:00;;;;;;;;;;;0.90;99.90;;;;;;5075944;28;19952;-65
2022/12/03 06:14:25;;;;;;;;;;;0.90;99.90;;;;;;5076106;28;19913;-65
2022/12/03 06:16:50;;;;;;;;;;;0.90;99.90;;;;;;5075871;28;19912;-66
2022/12/03 06:19:16;;;;;;;;;;;0.90;99.90;;;;;;5075789;28;20290;-66
2022/12/03 06:21:41;;;;;;;;;;;0.90;99.90;;;;;;5075412;28;19930;-66
2022/12/03 06:24:07;;;;;;;;;;;0.90;99.90;;;;;;5075699;28;19912;-65
2022/12/03 06:26:32;;;;;;;;;;;1.00;99.90;;;;;;5075682;28;19992;-66
2022/12/03 06:28:58;;;;;;;;;;;0.90;99.90;;;;;;5075371;28;19920;-65
2022/12/03 06:31:23;;;;;;;;;;;0.90;99.90;;;;;;5075625;28;19919;-66
2022/12/03 06:33:49;;;;;;;;;;;1.00;99.90;;;;;;5075613;28;19909;-66
2022/12/03 06:36:14;;;;;;;;;;;0.90;99.90;;;;;;5075447;28;19916;-66
2022/12/03 06:38:40;;;;;;;;;;;0.90;99.90;;;;;;5075645;28;19909;-66
2022/12/03 06:41:06;;;;;;;;;;;0.90;99.90;;;;;;5075505;28;19908;-66
2022/12/03 06:43:31;;;;;;;;;;;0.90;99.90;;;;;;5075478;28;20269;-65
2022/12/03 06:45:57;;;;;;;;;;;0.90;99.90;;;;;;5075539;28;19954;-65
2022/12/03 06:48:22;;;;;;;;;;;0.90;99.90;;;;;;5075407;28;20358;-66
2022/12/03 06:50:48;;;;;;;;;;;0.80;99.90;;;;;;5075416;28;20420;-65
2022/12/03 06:53:13;;;;;;;;;;;0.80;99.90;;;;;;5057301;28;20277;-66
2022/12/03 06:55:39;;;;;;;;;;;0.80;99.90;;;;;;5075353;28;19909;-65
2022/12/03 06:58:04;;;;;;;;;;;0.80;99.90;;;;;;5075128;28;19912;-66
2022/12/03 07:00:29;;;;;;;;;;;0.80;99.90;;;;;;5074979;28;19908;-65
2022/12/03 07:02:55;;;;;;;;;;;0.80;99.90;;;;;;5074953;28;20356;-65
2022/12/03 07:05:20;;;;;;;;;;;0.90;99.90;;;;;;5057018;28;19908;-65
2022/12/03 07:07:50;;;;;;;;;;;0.80;99.90;;;;;;5074784;28;19909;-65
2022/12/03 07:10:17;;;;;;;;;;;0.80;99.90;;;;;;5074805;28;19912;-65
2022/12/03 07:12:43;;;;;;;;;;;0.80;99.90;;;;;;5074752;28;19909;-65
2022/12/03 07:15:08;;;;;;;;;;;0.80;99.90;;;;;;5074965;28;19916;-66
2022/12/03 07:17:34;;;;;;;;;;;0.80;99.90;;;;;;5074670;28;20325;-66
2022/12/03 07:19:59;;;;;;;;;;;0.90;99.90;;;;;;5074611;28;19908;-66
2022/12/03 07:22:25;;;;;;;;;;;0.90;99.90;;;;;;5074554;28;19955;-65
2022/12/03 07:24:50;;;;;;;;;;;0.80;99.90;;;;;;5074475;28;19909;-66
2022/12/03 07:27:15;;;;;;;;;;;0.80;99.90;;;;;;5074187;28;19908;-66
2022/12/03 07:29:41;;;;;;;;;;;0.90;99.90;;;;;;5074267;28;19915;-66
2022/12/03 07:32:06;;;;;;;;;;;0.90;99.90;;;;;;5074602;28;19916;-66
2022/12/03 07:34:32;;;;;;;;;;;0.90;99.90;;;;;;5073791;28;20390;-65
2022/12/03 07:36:57;;;;;;;;;;;0.90;99.90;;;;;;5074561;28;20293;-65
2022/12/03 07:39:23;;;;;;;;;;;0.90;99.90;;;;;;5056426;28;19947;-65
2022/12/03 07:41:48;;;;;;;;;;;0.90;99.90;;;;;;5074220;28;20049;-65
2022/12/03 07:44:14;;;;;;;;;;;1.00;99.90;;;;;;5074443;28;19912;-65
2022/12/03 07:46:39;;;;;;;;;;;1.00;99.90;;;;;;5074396;28;19999;-67
2022/12/03 07:49:05;;;;;;;;;;;1.00;99.90;;;;;;5074321;28;20320;-66
2022/12/03 07:51:30;;;;;;;;;;;1.00;99.90;;;;;;5074282;28;19909;-65
2022/12/03 07:53:55;;;;;;;;;;;1.00;99.90;;;;;;5056503;28;19962;-65
2022/12/03 07:56:21;;;;;;;;;;;1.00;99.90;;;;;;5074105;28;20445;-66
2022/12/03 07:58:46;;;;;;;;;;;1.00;99.90;;;;;;5073757;28;19909;-66
2022/12/03 08:01:12;;;;;;;;;;;1.00;99.90;;;;;;5074067;28;19959;-66
2022/12/03 08:03:37;;;;;;;;;;;1.10;99.90;;;;;;5074052;28;19913;-66
2022/12/03 08:06:03;;;;;;;;;;;1.10;99.90;;;;;;5073884;28;19916;-65
2022/12/03 08:08:29;;;;;;;;;;;1.00;99.90;;;;;;5073684;28;20042;-65
2022/12/03 08:10:54;;;;;;;;;;;1.00;99.90;;;;;;5074034;28;19972;-65
2022/12/03 08:13:20;;;;;;;;;;;1.00;99.90;;;;;;5073979;28;19909;-65
2022/12/03 08:15:45;;;;;;;;;;;1.10;99.90;;;;;;5073680;28;20348;-66
2022/12/03 08:18:13;;;;;;;;;;;1.10;99.90;;;;;;5073705;28;19908;-66
2022/12/03 08:20:39;;;;;;;;;;;1.10;99.90;;;;;;5073913;28;20007;-66
2022/12/03 08:23:08;;;;;;;;;;;1.10;99.90;;;;;;5073967;28;19908;-65
2022/12/03 08:25:34;;;;;;;;;;;1.10;99.90;;;;;;5073626;28;19912;-66
2022/12/03 08:28:06;;;;;;;;;;;1.10;99.90;;;;;;5073291;28;19973;-66
2022/12/03 08:30:31;;;;;;;;;;;1.10;99.90;;;;;;5073546;28;19908;-66
2022/12/03 08:32:57;;;;;;;;;;;1.00;99.90;;;;;;5073587;28;20014;-66
2022/12/03 08:35:24;;;;;;;;;;;1.00;99.90;;;;;;5073525;28;19908;-66
2022/12/03 08:37:55;;;;;;;;;;;1.00;99.90;;;;;;5073558;28;19914;-66
2022/12/03 08:40:22;;;;;;;;;;;1.10;99.90;;;;;;5073756;28;19915;-65
2022/12/03 08:42:48;;;;;;;;;;;1.10;99.90;;;;;;5055367;28;19912;-66
2022/12/03 08:45:30;;;;;;;;;;;1.10;99.90;;;;;;5075453;28;19999;-66
2022/12/03 08:47:58;;;;;;;;;;;1.10;99.90;;;;;;5077765;28;19916;-66
2022/12/03 08:50:26;;;;;;;;;;;1.20;99.90;;;;;;5077419;28;19913;-66
2022/12/03 08:52:52;;;;;;;;;;;1.20;99.90;;;;;;5077718;28;19991;-65
2022/12/03 08:55:37;;;;;;;;;;;1.10;99.90;;;;;;5077670;28;19959;-66
2022/12/03 08:58:23;;;;;;;;;;;1.20;99.90;;;;;;5077132;28;19944;-66
2022/12/03 09:01:08;;;;;;;;;;;1.20;99.90;;;;;;5077108;28;19944;-66
2022/12/03 09:03:34;;;;;;;;;;;1.20;99.90;;;;;;5077146;28;20282;-66
2022/12/03 09:05:59;;;;;;;;;;;1.20;99.90;;;;;;5077186;28;19908;-66
2022/12/03 09:08:24;;;;;;;;;;;1.30;99.90;;;;;;5077303;28;20350;-66
2022/12/03 09:10:50;;;;;;;;;;;1.30;99.90;;;;;;5077073;28;19932;-66
2022/12/03 09:13:15;;;;;;;;;;;1.30;99.90;;;;;;5077031;28;19908;-66
2022/12/03 09:15:41;;;;;;;;;;;1.30;99.90;;;;;;5076905;28;19931;-65
2022/12/03 09:18:07;;;;;;;;;;;1.30;99.90;;;;;;5076892;28;20073;-66
2022/12/03 09:20:33;;;;;;;;;;;1.40;99.90;;;;;;5077090;28;19908;-66
2022/12/03 09:22:58;;;;;;;;;;;1.40;99.90;;;;;;5076758;28;19919;-66
2022/12/03 09:25:23;;;;;;;;;;;1.40;99.90;;;;;;5076995;28;19913;-65
2022/12/03 09:27:49;;;;;;;;;;;1.40;99.90;;;;;;5076521;28;20400;-66
2022/12/03 09:30:14;;;;;;;;;;;1.30;99.90;;;;;;5076620;28;19912;-65
2022/12/03 09:32:40;;;;;;;;;;;1.30;99.90;;;;;;5076655;28;19916;-66
2022/12/03 09:35:06;;;;;;;;;;;1.40;99.90;;;;;;5076774;28;20324;-66
2022/12/03 09:37:31;;;;;;;;;;;1.40;99.90;;;;;;5076730;28;20381;-66
2022/12/03 09:39:57;;;;;;;;;;;1.40;99.90;;;;;;5076405;28;20461;-66
2022/12/03 09:42:23;;;;;;;;;;;1.50;99.90;;;;;;5076573;28;20274;-67
2022/12/03 09:44:48;;;;;;;;;;;1.50;99.90;;;;;;5076382;28;20006;-66
2022/12/03 09:47:14;;;;;;;;;;;1.50;99.90;;;;;;5076357;28;19959;-66
2022/12/03 09:49:39;;;;;;;;;;;1.50;99.90;;;;;;5076277;28;19912;-66
2022/12/03 09:52:06;;;;;;;;;;;1.50;99.90;;;;;;5076601;28;19957;-66
2022/12/03 09:54:31;;;;;;;;;;;1.50;99.90;;;;;;5076236;28;19998;-66
2022/12/03 09:56:58;;;;;;;;;;;1.50;99.90;;;;;;5075344;28;19959;-66
2022/12/03 09:59:25;;;;;;;;;;;1.50;99.90;;;;;;5076447;28;20309;-66
2022/12/03 10:01:51;;;;;;;;;;;1.40;99.90;;;;;;5076116;28;19974;-66
2022/12/03 10:04:17;;;;;;;;;;;1.50;99.90;;;;;;5076205;28;20003;-66
2022/12/03 10:06:42;;;;;;;;;;;1.60;99.90;;;;;;5076029;28;19963;-66
2022/12/03 10:09:09;;;;;;;;;;;1.60;99.90;;;;;;5075920;28;19966;-64
2022/12/03 10:11:35;;;;;;;;;;;1.60;99.90;;;;;;5076258;28;19908;-66
2022/12/03 10:14:00;;;;;;;;;;;1.60;99.90;;;;;;5075922;28;19931;-66
2022/12/03 10:16:28;;;;;;;;;;;1.50;99.90;;;;;;5076120;28;19915;-66
2022/12/03 10:18:55;;;;;;;;;;;1.60;99.90;;;;;;5076064;28;19944;-64
2022/12/03 10:21:25;;;;;;;;;;;1.60;99.90;;;;;;5076041;28;19958;-64
2022/12/03 10:24:11;;;;;;;;;;;1.70;99.90;;;;;;5076003;28;19908;-63
2022/12/03 10:26:38;;;;;;;;;;;1.80;99.90;;;;;;5075636;28;19913;-64
2022/12/03 10:29:10;;;;;;;;;;;1.80;99.90;;;;;;5075299;28;19927;-66
2022/12/03 10:31:35;;;;;;;;;;;1.70;99.90;;;;;;5075842;28;20274;-67
2022/12/03 10:34:01;;;;;;;;;;;1.70;99.90;;;;;;5075748;28;19908;-64
2022/12/03 10:36:26;;;;;;;;;;;1.70;99.90;;;;;;5075732;28;19916;-64
2022/12/03 10:39:12;;;;;;;;;;;1.70;99.90;;;;;;5075653;28;20320;-66
2022/12/03 10:41:38;;;;;;;;;;;1.70;99.90;;;;;;5075531;28;19987;-66
2022/12/03 10:44:11;;;;;;;;;;;1.70;99.90;;;;;;5075385;28;19909;-64
2022/12/03 10:46:36;;;;;;;;;;;1.70;99.90;;;;;;5075621;28;20331;-67
2022/12/03 10:49:17;;;;;;;;;;;1.70;99.90;;;;;;5075109;28;19963;-66
2022/12/03 10:51:44;;;;;;;;;;;1.80;99.90;;;;;;5075437;28;20362;-64
2022/12/03 10:54:18;;;;;;;;;;;1.90;99.90;;;;;;5075203;28;19947;-66
2022/12/03 10:56:44;;;;;;;;;;;2.00;99.90;;;;;;5075379;28;20366;-63
2022/12/03 10:59:13;;;;;;;;;;;1.80;99.90;;;;;;5074992;28;19908;-63
2022/12/03 11:01:38;;;;;;;;;;;1.90;99.90;;;;;;5075272;28;20357;-64
2022/12/03 11:04:04;;;;;;;;;;;2.00;99.90;;;;;;5074938;28;19909;-66
2022/12/03 11:06:31;;;;;;;;;;;1.90;99.90;;;;;;5075101;28;19908;-64
2022/12/03 11:08:57;;;;;;;;;;;1.80;99.90;;;;;;5073976;28;19912;-64
2022/12/03 11:11:24;;;;;;;;;;;1.90;99.90;;;;;;5075021;28;19999;-64
2022/12/03 11:13:53;;;;;;;;;;;1.90;99.90;;;;;;5074999;28;20404;-64
2022/12/03 11:16:38;;;;;;;;;;;1.80;99.90;;;;;;5074974;28;19912;-65
2022/12/03 11:19:05;;;;;;;;;;;1.90;99.90;;;;;;5074469;28;20008;-64
2022/12/03 11:21:30;;;;;;;;;;;1.80;99.90;;;;;;5074828;28;19909;-64
2022/12/03 11:26:54;;;;;;;;;;;1.80;99.90;;;;;;5137847;27;19913;-66
2022/12/03 11:29:39;;;;;;;;;;;1.80;99.90;;;;;;5047666;28;19913;-66
2022/12/03 11:32:05;;;;;;;;;;;1.80;99.90;;;;;;5047313;28;19909;-66
2022/12/03 11:34:39;;;;;;;;;;;1.80;99.90;;;;;;5047260;28;19915;-66
2022/12/03 11:37:20;;;;;;;;;;;1.80;99.90;;;;;;5047572;28;19916;-66
2022/12/03 11:42:40;;;;;;;;;;;1.80;99.90;;;;;;5137797;27;19920;-64
2022/12/03 11:47:59;;;;;;;;;;;1.80;99.90;;;;;;5137751;27;19913;-66
2022/12/03 11:50:31;;;;;;;;;;;1.70;99.90;;;;;;5047633;28;20294;-66
2022/12/03 11:53:00;;;;;;;;;;;1.70;99.90;;;;;;5047643;27;19913;-66
2022/12/03 11:55:28;;;;;;;;;;;1.80;99.90;;;;;;5047282;28;19909;-66
2022/12/03 11:57:58;;;;;;;;;;;1.80;99.90;;;;;;5047580;27;20272;-66
2022/12/03 12:00:24;;;;;;;;;;;1.80;99.90;;;;;;5047246;28;19963;-66
2022/12/03 12:02:51;;;;;;;;;;;1.80;99.90;;;;;;5047570;27;19917;-65
2022/12/03 12:05:18;;;;;;;;;;;1.90;99.90;;;;;;5047435;27;20362;-66
2022/12/03 12:07:46;;;;;;;;;;;1.90;99.90;;;;;;5047142;27;19909;-66
2022/12/03 12:10:12;;;;;;;;;;;1.80;99.90;;;;;;5047398;27;19958;-66
2022/12/03 12:12:38;;;;;;;;;;;1.80;99.90;;;;;;5047086;28;20382;-66
2022/12/03 12:15:24;;;;;;;;;;;1.70;99.90;;;;;;5047343;27;19920;-65
2022/12/03 12:17:49;;;;;;;;;;;1.80;99.90;;;;;;5046913;28;20008;-66
2022/12/03 12:20:29;;;;;;;;;;;1.70;99.90;;;;;;5046924;28;20387;-65
2022/12/03 12:23:15;;;;;;;;;;;1.70;99.90;;;;;;5047219;27;20365;-66
2022/12/03 12:25:40;;;;;;;;;;;1.90;99.90;;;;;;5046751;28;20054;-66
2022/12/03 12:28:06;;;;;;;;;;;1.90;99.90;;;;;;5047152;28;20004;-66
2022/12/03 12:30:32;;;;;;;;;;;1.90;99.90;;;;;;5047089;27;20381;-67
2022/12/03 12:33:18;;;;;;;;;;;1.90;99.90;;;;;;5047081;27;19931;-66
2022/12/03 12:35:43;;;;;;;;;;;1.90;99.90;;;;;;5046735;27;19952;-66
2022/12/03 12:38:13;;;;;;;;;;;1.80;99.90;;;;;;5046755;28;20394;-66
2022/12/03 12:40:39;;;;;;;;;;;1.80;99.90;;;;;;5046961;27;20370;-66
2022/12/03 12:43:18;;;;;;;;;;;1.80;99.90;;;;;;5046594;28;19997;-66
2022/12/03 12:45:44;;;;;;;;;;;1.90;99.90;;;;;;5046524;27;19921;-64
2022/12/03 12:48:14;;;;;;;;;;;1.90;99.90;;;;;;5046830;27;20434;-66
2022/12/03 12:50:41;;;;;;;;;;;1.80;99.90;;;;;;5046777;27;20286;-66
2022/12/03 12:53:10;;;;;;;;;;;1.70;99.90;;;;;;5045279;27;19916;-66
2022/12/03 12:55:36;;;;;;;;;;;1.70;99.90;;;;;;5046424;28;19909;-66
2022/12/03 12:58:04;;;;;;;;;;;1.80;99.90;;;;;;5038898;28;19916;-66
2022/12/03 13:00:30;;;;;;;;;;;1.80;99.90;;;;;;5033424;28;20423;-66
2022/12/03 13:02:58;;;;;;;;;;;1.80;99.90;;;;;;5033370;28;19944;-65
2022/12/03 13:05:26;;;;;;;;;;;1.70;99.90;;;;;;5032974;28;19932;-65
2022/12/03 13:07:53;;;;;;;;;;;1.80;99.90;;;;;;5033349;28;19909;-66
2022/12/03 13:10:32;;;;;;;;;;;1.70;99.90;;;;;;5032977;28;19916;-66
2022/12/03 13:13:06;;;;;;;;;;;1.70;99.90;;;;;;5031722;28;19916;-66
2022/12/03 13:15:49;;;;;;;;;;;1.70;99.90;;;;;;5032891;28;19916;-66
2022/12/03 13:18:20;;;;;;;;;;;1.60;99.90;;;;;;5032817;28;19913;-66
2022/12/03 13:20:46;;;;;;;;;;;1.70;99.90;;;;;;5032953;28;20366;-68
2022/12/03 13:23:31;;;;;;;;;;;1.70;99.90;;;;;;5032846;28;19909;-66
2022/12/03 13:25:58;;;;;;;;;;;1.60;99.90;;;;;;5032465;28;19922;-66
2022/12/03 13:28:24;;;;;;;;;;;1.70;99.90;;;;;;5032952;28;20108;-66
2022/12/03 13:30:49;;;;;;;;;;;1.60;99.90;;;;;;5032929;28;20020;-65
2022/12/03 13:33:24;;;;;;;;;;;1.60;99.90;;;;;;5032824;28;19909;-66
2022/12/03 13:35:52;;;;;;;;;;;1.70;99.90;;;;;;5032821;28;19909;-66
2022/12/03 13:38:19;;;;;;;;;;;1.60;99.90;;;;;;5032774;28;20393;-66
2022/12/03 13:40:44;;;;;;;;;;;1.60;99.90;;;;;;5032515;28;20357;-66
2022/12/03 13:43:13;;;;;;;;;;;1.60;99.90;;;;;;5031359;28;19970;-66
2022/12/03 13:45:39;;;;;;;;;;;1.60;99.90;;;;;;5032184;28;20298;-66
2022/12/03 13:48:13;;;;;;;;;;;1.60;99.90;;;;;;5032411;28;19909;-66
2022/12/03 13:50:40;;;;;;;;;;;1.60;99.90;;;;;;5032474;28;19944;-66
2022/12/03 13:53:26;;;;;;;;;;;1.60;99.90;;;;;;5032607;28;20027;-66
2022/12/03 13:55:55;;;;;;;;;;;1.60;99.90;;;;;;5032213;28;19909;-66
2022/12/03 13:58:20;;;;;;;;;;;1.60;99.90;;;;;;5032509;28;19909;-66
2022/12/03 14:00:46;;;;;;;;;;;1.70;99.90;;;;;;5032134;28;19969;-66
2022/12/03 14:03:11;;;;;;;;;;;1.70;99.90;;;;;;5032186;28;20000;-65
2022/12/03 14:05:37;;;;;;;;;;;1.70;99.90;;;;;;5032064;28;19910;-65
2022/12/03 14:08:03;;;;;;;;;;;1.60;99.90;;;;;;5032321;28;19932;-65
2022/12/03 14:10:29;;;;;;;;;;;1.50;99.90;;;;;;5030948;28;19920;-66
2022/12/03 14:12:55;;;;;;;;;;;1.50;99.90;;;;;;5032294;28;19913;-66
2022/12/03 14:15:20;;;;;;;;;;;1.50;99.90;;;;;;5032018;28;19916;-65
2022/12/03 14:17:46;;;;;;;;;;;1.40;99.90;;;;;;5032189;28;19909;-66
2022/12/03 14:20:12;;;;;;;;;;;1.50;99.90;;;;;;5032191;28;20263;-66
2022/12/03 14:22:38;;;;;;;;;;;1.50;99.90;;;;;;5032204;28;20400;-66
2022/12/03 14:25:04;;;;;;;;;;;1.50;99.90;;;;;;5032085;28;19909;-66
2022/12/03 14:27:30;;;;;;;;;;;1.40;99.90;;;;;;5031991;28;20023;-66
2022/12/03 14:29:55;;;;;;;;;;;1.40;99.90;;;;;;5031774;28;19953;-66
2022/12/03 14:32:20;;;;;;;;;;;1.40;99.90;;;;;;5031699;28;19958;-66
2022/12/03 14:34:46;;;;;;;;;;;1.40;99.90;;;;;;5031958;28;19910;-66
2022/12/03 14:37:11;;;;;;;;;;;1.40;99.90;;;;;;5031935;28;19916;-66
2022/12/03 14:39:37;;;;;;;;;;;1.40;99.90;;;;;;5031876;28;19909;-66
2022/12/03 14:42:17;;;;;;;;;;;1.40;99.90;;;;;;5031565;28;19909;-66
2022/12/03 14:44:44;;;;;;;;;;;1.30;99.90;;;;;;5031806;28;19959;-66
2022/12/03 14:47:10;;;;;;;;;;;1.40;99.90;;;;;;5031242;28;19956;-66
2022/12/03 14:49:36;;;;;;;;;;;1.40;99.90;;;;;;5031645;28;20363;-66
2022/12/03 14:52:01;;;;;;;;;;;1.40;99.90;;;;;;5031660;28;19909;-66
2022/12/03 14:54:27;;;;;;;;;;;1.30;99.90;;;;;;5031367;28;20007;-66